Airport Name : Batumi

Other Name : Batumi

ICAO : UGSB

IATA : BUS

FAA :

Latitude : 41.610278

Longitude : 41.599694

Country : Georgia

Local Date and Time : 24 Jan 2021 09:58

 

TAF (Terminal Aerodrome Forecast)

TAF UGSB 240500Z 2406/2506 12022KT CAVOK TX14/2411Z TN05/2503Z BECMG 2409/2412 11012KT BECMG 2416/2419 13023KT

 

METAR (METeorological Aerodrome Report)

UGSB 240530Z 12027KT CAVOK 07/M06 Q1018 NOSIG

UGSB 240500Z 12026KT CAVOK 07/M06 Q1018 NOSIG

UGSB 240430Z 12026KT CAVOK 07/M06 Q1018 NOSIG

UGSB 240400Z 12024KT CAVOK 07/M06 Q1018 NOSIG

UGSB 240330Z 12024KT CAVOK 07/M06 Q1018 NOSIG

UGSB 240300Z 12025KT CAVOK 06/M06 Q1018 NOSIG

UGSB 240230Z 12024KT CAVOK 06/M05 Q1019 NOSIG

UGSB 240200Z 12024KT CAVOK 06/M05 Q1019 NOSIG

To Charter a Jet Click here.